createdAt,value
2023-08-17T00:02:14.286Z,3.70
2023-08-17T00:04:41.693Z,4.70
2023-08-17T00:07:09.145Z,4.50
2023-08-17T00:09:36.642Z,4.30
2023-08-17T00:12:04.997Z,4.60
2023-08-17T00:14:33.644Z,5.30
2023-08-17T00:17:01.355Z,4.40
2023-08-17T00:19:28.741Z,4.20
2023-08-17T00:21:56.708Z,4.50
2023-08-17T00:24:24.168Z,4.80
2023-08-17T00:26:51.562Z,4.30
2023-08-17T00:29:19.037Z,4.70
2023-08-17T00:31:46.489Z,4.30
2023-08-17T00:34:14.244Z,4.90
2023-08-17T00:36:41.694Z,4.70
2023-08-17T00:39:09.109Z,4.00
2023-08-17T00:41:36.527Z,4.30
2023-08-17T00:44:04.167Z,4.60
2023-08-17T00:46:31.747Z,4.40
2023-08-17T00:48:59.622Z,4.80
2023-08-17T00:51:27.936Z,4.40
2023-08-17T00:53:57.457Z,4.80
2023-08-17T00:56:25.047Z,4.30
2023-08-17T00:58:52.504Z,4.30
2023-08-17T01:01:21.184Z,4.60
2023-08-17T01:03:48.650Z,4.40
2023-08-17T01:06:16.073Z,4.90
2023-08-17T01:08:44.202Z,4.80
2023-08-17T01:11:38.723Z,4.80
2023-08-17T01:14:11.072Z,4.60
2023-08-17T01:16:41.380Z,4.40
2023-08-17T01:19:10.946Z,5.00
2023-08-17T01:21:44.239Z,4.60
2023-08-17T01:24:13.427Z,4.50
2023-08-17T01:26:40.887Z,4.30
2023-08-17T01:29:08.665Z,4.20
2023-08-17T01:31:44.641Z,4.50
2023-08-17T01:34:14.549Z,4.60
2023-08-17T01:36:45.115Z,4.60
2023-08-17T01:39:12.619Z,5.10
2023-08-17T01:41:40.011Z,4.90
2023-08-17T01:44:07.520Z,4.90
2023-08-17T01:46:35.096Z,5.70
2023-08-17T01:49:02.539Z,5.60
2023-08-17T01:51:31.533Z,5.70
2023-08-17T01:53:58.975Z,5.50
2023-08-17T01:56:27.291Z,5.40
2023-08-17T01:58:54.721Z,5.30
2023-08-17T02:01:23.611Z,5.80
2023-08-17T02:03:51.023Z,5.50
2023-08-17T02:06:18.436Z,6.10
2023-08-17T02:08:46.729Z,6.00
2023-08-17T02:11:14.260Z,6.20
2023-08-17T02:13:41.663Z,6.40
2023-08-17T02:16:09.116Z,6.30
2023-08-17T02:18:36.641Z,5.90
2023-08-17T02:21:04.245Z,5.50
2023-08-17T02:23:31.640Z,5.70
2023-08-17T02:25:59.209Z,5.80
2023-08-17T02:28:26.619Z,6.10
2023-08-17T02:30:57.931Z,6.20
2023-08-17T02:33:27.752Z,6.30
2023-08-17T02:35:55.222Z,6.60
2023-08-17T02:38:22.679Z,5.90
2023-08-17T02:40:51.209Z,5.60
2023-08-17T02:43:18.698Z,6.20
2023-08-17T02:45:46.081Z,6.40
2023-08-17T02:48:13.602Z,6.00
2023-08-17T02:50:42.155Z,5.90
2023-08-17T02:53:09.914Z,6.00
2023-08-17T02:55:37.804Z,6.60
2023-08-17T02:58:05.218Z,6.40
2023-08-17T03:00:32.615Z,6.10
2023-08-17T03:03:00.172Z,6.90
2023-08-17T03:05:27.597Z,6.40
2023-08-17T03:07:56.013Z,6.90
2023-08-17T03:10:23.962Z,5.90
2023-08-17T03:12:52.332Z,5.70
2023-08-17T03:15:19.815Z,6.10
2023-08-17T03:17:47.475Z,5.60
2023-08-17T03:20:15.000Z,6.00
2023-08-17T03:22:42.452Z,5.80
2023-08-17T03:25:09.975Z,5.60
2023-08-17T03:27:37.830Z,6.80
2023-08-17T03:30:06.674Z,6.40
2023-08-17T03:32:34.135Z,6.40
2023-08-17T03:35:01.542Z,6.70
2023-08-17T03:37:29.271Z,5.90
2023-08-17T03:39:56.809Z,6.70
2023-08-17T03:42:24.245Z,5.90
2023-08-17T03:44:52.474Z,6.20
2023-08-17T03:47:20.338Z,5.70
2023-08-17T03:49:48.369Z,6.50
2023-08-17T03:52:16.159Z,5.20
2023-08-17T03:54:43.650Z,5.20
2023-08-17T03:57:11.154Z,5.30
2023-08-17T03:59:38.921Z,5.10
2023-08-17T04:02:06.350Z,5.30
2023-08-17T04:04:33.805Z,4.90
2023-08-17T04:07:01.386Z,5.10
2023-08-17T04:09:28.878Z,4.70
2023-08-17T04:11:58.585Z,5.00
2023-08-17T04:14:26.646Z,5.50
2023-08-17T04:16:54.866Z,5.60
2023-08-17T04:19:22.254Z,5.30
2023-08-17T04:21:49.666Z,6.40
2023-08-17T04:24:17.071Z,5.10
2023-08-17T04:26:44.451Z,5.70
2023-08-17T04:29:11.923Z,5.80
2023-08-17T04:31:39.677Z,5.70
2023-08-17T04:34:07.143Z,5.20
2023-08-17T04:36:34.608Z,5.10
2023-08-17T04:39:02.051Z,5.40
2023-08-17T04:41:29.492Z,5.60
2023-08-17T04:43:56.900Z,7.50
2023-08-17T04:46:24.455Z,5.30
2023-08-17T04:48:51.912Z,5.00
2023-08-17T04:51:19.334Z,4.80
2023-08-17T04:53:46.825Z,5.40
2023-08-17T04:56:14.244Z,5.00
2023-08-17T04:58:41.846Z,4.60
2023-08-17T05:01:11.574Z,4.80
2023-08-17T05:03:39.257Z,4.60
2023-08-17T05:06:06.837Z,4.60
2023-08-17T05:08:34.464Z,4.50
2023-08-17T05:11:02.040Z,5.00
2023-08-17T05:13:30.025Z,4.90
2023-08-17T05:16:00.555Z,4.80
2023-08-17T05:18:28.603Z,4.70
2023-08-17T05:20:56.091Z,5.20
2023-08-17T05:23:23.632Z,4.60
2023-08-17T05:25:51.475Z,5.10
2023-08-17T05:28:18.975Z,4.80
2023-08-17T05:30:46.576Z,5.30
2023-08-17T05:33:14.667Z,5.00
2023-08-17T05:35:43.448Z,4.70
2023-08-17T05:38:11.089Z,4.80
2023-08-17T05:40:38.549Z,4.90
2023-08-17T05:43:06.171Z,4.90
2023-08-17T05:45:38.061Z,4.80
2023-08-17T05:48:07.884Z,4.90
2023-08-17T05:50:35.964Z,4.50
2023-08-17T05:53:03.478Z,5.20
2023-08-17T05:55:30.884Z,5.60
2023-08-17T05:57:58.285Z,5.30
2023-08-17T06:00:25.941Z,4.80
2023-08-17T06:02:53.665Z,4.70
2023-08-17T06:05:26.547Z,4.90
2023-08-17T06:07:53.946Z,4.70
2023-08-17T06:10:21.799Z,4.50
2023-08-17T06:12:49.198Z,5.20
2023-08-17T06:15:16.716Z,5.20
2023-08-17T06:17:44.229Z,5.30
2023-08-17T06:20:13.300Z,4.90
2023-08-17T06:22:40.821Z,4.90
2023-08-17T06:25:09.896Z,5.00
2023-08-17T06:27:37.450Z,4.80
2023-08-17T06:30:05.283Z,5.00
2023-08-17T06:32:32.747Z,4.80
2023-08-17T06:35:00.219Z,5.00
2023-08-17T06:37:27.838Z,4.80
2023-08-17T06:39:55.635Z,4.70
2023-08-17T06:42:23.192Z,5.70
2023-08-17T06:44:50.677Z,5.10
2023-08-17T06:47:18.113Z,4.20
2023-08-17T06:49:45.500Z,3.80
2023-08-17T06:52:12.965Z,3.70
2023-08-17T06:54:41.115Z,3.50
2023-08-17T06:57:08.539Z,3.50
2023-08-17T06:59:36.184Z,3.30
2023-08-17T07:02:03.762Z,3.50
2023-08-17T07:04:32.391Z,3.20
2023-08-17T07:07:00.024Z,3.30
2023-08-17T07:09:29.224Z,2.90
2023-08-17T07:11:56.681Z,4.40
2023-08-17T07:14:24.333Z,2.40
2023-08-17T07:16:51.760Z,2.50
2023-08-17T07:21:47.120Z,2.10
2023-08-17T07:24:15.698Z,2.30
2023-08-17T07:26:43.286Z,2.40
2023-08-17T07:29:10.710Z,2.80
2023-08-17T07:31:44.161Z,2.60
2023-08-17T07:34:11.989Z,2.60
2023-08-17T07:36:39.512Z,2.40
2023-08-17T07:39:07.336Z,2.10
2023-08-17T07:41:34.719Z,2.10
2023-08-17T07:44:02.128Z,2.00
2023-08-17T07:46:29.605Z,2.20
2023-08-17T07:48:57.085Z,2.10
2023-08-17T07:51:24.590Z,2.90
2023-08-17T07:53:51.964Z,2.40
2023-08-17T07:56:19.767Z,3.00
2023-08-17T07:58:47.211Z,3.10
2023-08-17T08:01:14.746Z,2.00
2023-08-17T08:03:42.153Z,1.90
2023-08-17T08:06:09.736Z,2.00
2023-08-17T08:08:37.329Z,1.70
2023-08-17T08:11:05.704Z,1.50
2023-08-17T08:13:33.128Z,1.70
2023-08-17T08:16:00.529Z,1.70
2023-08-17T08:18:27.981Z,1.60
2023-08-17T08:20:55.467Z,1.50
2023-08-17T08:23:22.943Z,2.20
2023-08-17T08:25:50.461Z,1.60
2023-08-17T08:28:17.947Z,1.60
2023-08-17T08:30:45.446Z,2.00
2023-08-17T08:33:12.927Z,1.90
2023-08-17T08:35:40.407Z,1.70
2023-08-17T08:38:07.840Z,1.50
2023-08-17T08:40:35.259Z,2.10
2023-08-17T08:43:02.674Z,1.60
2023-08-17T08:45:30.234Z,1.50
2023-08-17T08:47:57.916Z,1.50
2023-08-17T08:50:25.394Z,2.40
2023-08-17T08:53:04.837Z,1.70
2023-08-17T08:55:36.961Z,1.60
2023-08-17T08:58:08.361Z,2.20
2023-08-17T09:00:35.744Z,1.80
2023-08-17T09:03:04.240Z,1.80
2023-08-17T09:05:32.804Z,1.50
2023-08-17T09:08:00.575Z,1.60
2023-08-17T09:10:29.354Z,1.70
2023-08-17T09:12:58.625Z,1.60
2023-08-17T09:15:26.141Z,1.60
2023-08-17T09:17:53.559Z,1.90
2023-08-17T09:20:48.279Z,1.90
2023-08-17T09:23:23.187Z,1.90
2023-08-17T09:25:53.179Z,1.50
2023-08-17T09:28:21.756Z,1.90
2023-08-17T09:31:04.898Z,1.60
2023-08-17T09:33:32.647Z,1.50
2023-08-17T09:36:00.725Z,1.90
2023-08-17T09:38:28.702Z,1.60
2023-08-17T09:40:56.386Z,1.50
2023-08-17T09:43:23.892Z,2.20
2023-08-17T09:45:51.480Z,1.70
2023-08-17T09:48:19.070Z,1.80
2023-08-17T09:50:47.734Z,1.90
2023-08-17T09:53:15.857Z,1.50
2023-08-17T09:55:44.441Z,2.00
2023-08-17T09:58:18.250Z,2.00
2023-08-17T10:00:51.672Z,1.60
2023-08-17T10:03:20.478Z,2.00
2023-08-17T10:06:01.185Z,1.90
2023-08-17T10:08:29.661Z,2.00
2023-08-17T10:10:57.166Z,1.60
2023-08-17T10:13:39.045Z,1.70
2023-08-17T10:16:31.453Z,2.00
2023-08-17T10:19:15.454Z,1.90
2023-08-17T10:21:55.476Z,1.60
2023-08-17T10:24:23.070Z,1.70
2023-08-17T10:26:54.785Z,1.90
2023-08-17T10:29:24.625Z,1.80
2023-08-17T10:31:52.515Z,1.60
2023-08-17T10:34:20.134Z,1.90
2023-08-17T10:36:47.572Z,1.70
2023-08-17T10:39:29.725Z,1.60
2023-08-17T10:41:58.575Z,1.90
2023-08-17T10:44:38.368Z,1.50
2023-08-17T10:47:25.647Z,1.60
2023-08-17T10:50:00.790Z,1.60
2023-08-17T10:52:32.973Z,1.80
2023-08-17T10:55:06.474Z,1.90
2023-08-17T10:57:34.990Z,1.70
2023-08-17T11:00:20.723Z,1.80
2023-08-17T11:03:02.930Z,1.60
2023-08-17T11:05:57.004Z,1.80
2023-08-17T11:08:30.862Z,1.50
2023-08-17T11:11:00.056Z,2.30
2023-08-17T11:13:43.361Z,2.30
2023-08-17T11:16:12.263Z,2.00
2023-08-17T11:18:42.683Z,1.80
2023-08-17T11:21:11.384Z,1.80
2023-08-17T11:23:41.368Z,1.60
2023-08-17T11:26:08.920Z,1.90
2023-08-17T11:31:12.883Z,1.70
2023-08-17T11:33:41.197Z,1.60
2023-08-17T11:36:09.681Z,1.80
2023-08-17T11:38:43.633Z,2.10
2023-08-17T11:41:18.525Z,1.90
2023-08-17T11:43:46.920Z,1.90
2023-08-17T11:46:14.615Z,1.60
2023-08-17T11:48:42.276Z,1.50
2023-08-17T11:51:09.806Z,1.60
2023-08-17T11:53:37.807Z,1.90
2023-08-17T11:56:10.636Z,1.50
2023-08-17T11:58:46.733Z,1.80
2023-08-17T12:01:14.584Z,1.50
2023-08-17T12:03:43.128Z,1.60
2023-08-17T12:06:11.465Z,1.80
2023-08-17T12:08:38.914Z,1.50
2023-08-17T12:11:06.399Z,1.60
2023-08-17T12:13:37.133Z,1.70
2023-08-17T12:16:05.173Z,1.70
2023-08-17T12:18:36.310Z,1.50
2023-08-17T12:21:04.796Z,1.70
2023-08-17T12:23:34.049Z,1.90
2023-08-17T12:26:04.654Z,1.60
2023-08-17T12:28:32.094Z,1.60
2023-08-17T12:31:01.201Z,1.60
2023-08-17T12:33:28.716Z,2.00
2023-08-17T12:35:56.551Z,1.70
2023-08-17T12:38:25.348Z,1.60
2023-08-17T12:40:54.345Z,1.50
2023-08-17T12:43:24.586Z,1.50
2023-08-17T12:45:52.623Z,1.80
2023-08-17T12:48:20.141Z,2.00
2023-08-17T12:50:47.823Z,1.80
2023-08-17T12:53:15.275Z,1.40
2023-08-17T12:55:42.988Z,1.70
2023-08-17T12:58:11.215Z,1.90
2023-08-17T13:00:38.640Z,1.70
2023-08-17T13:03:06.144Z,1.50
2023-08-17T13:05:34.218Z,1.70
2023-08-17T13:08:01.649Z,1.60
2023-08-17T13:10:29.706Z,1.70
2023-08-17T13:13:00.437Z,1.90
2023-08-17T13:26:59.111Z,1.90
2023-08-17T13:29:26.624Z,1.50
2023-08-17T13:31:54.257Z,1.50
2023-08-17T13:34:21.774Z,1.70
2023-08-17T13:36:49.278Z,1.90
2023-08-17T13:39:18.982Z,1.70
2023-08-17T13:41:46.564Z,1.80
2023-08-17T13:44:14.020Z,1.90
2023-08-17T13:46:41.516Z,1.70
2023-08-17T13:49:09.068Z,1.50
2023-08-17T13:51:36.519Z,2.00
2023-08-17T13:54:04.780Z,1.70
2023-08-17T13:56:32.307Z,2.00
2023-08-17T13:58:59.756Z,1.60
2023-08-17T14:01:27.633Z,1.60
2023-08-17T14:03:55.138Z,1.60
2023-08-17T14:06:22.793Z,1.70
2023-08-17T14:08:50.258Z,1.70
2023-08-17T14:11:17.713Z,1.60
2023-08-17T14:13:45.164Z,2.20
2023-08-17T14:16:13.102Z,2.30
2023-08-17T14:18:40.580Z,2.00
2023-08-17T14:21:08.034Z,1.80
2023-08-17T14:23:35.448Z,1.70
2023-08-17T14:26:03.441Z,1.50
2023-08-17T14:28:30.973Z,1.90
2023-08-17T14:30:58.346Z,1.80
2023-08-17T14:33:25.834Z,1.90
2023-08-17T14:35:53.271Z,1.80
2023-08-17T14:38:20.874Z,1.70
2023-08-17T14:40:49.076Z,1.80
2023-08-17T14:43:16.778Z,2.20
2023-08-17T14:45:44.379Z,1.90
2023-08-17T14:48:11.832Z,1.60
2023-08-17T14:50:39.623Z,2.00
2023-08-17T14:53:08.171Z,1.80
2023-08-17T14:55:35.751Z,1.70
2023-08-17T14:58:04.059Z,1.80
2023-08-17T15:00:33.925Z,1.60
2023-08-17T15:03:02.199Z,1.70
2023-08-17T15:05:29.961Z,1.90
2023-08-17T15:07:57.439Z,1.50
2023-08-17T15:10:25.282Z,1.60
2023-08-17T15:12:52.771Z,1.90
2023-08-17T15:15:20.985Z,1.60
2023-08-17T15:17:48.987Z,2.30
2023-08-17T15:20:16.438Z,2.10
2023-08-17T15:22:44.005Z,1.60
2023-08-17T15:25:11.435Z,1.70
2023-08-17T15:27:38.915Z,1.70
2023-08-17T15:30:08.280Z,1.80
2023-08-17T15:32:35.712Z,2.00
2023-08-17T15:35:04.066Z,1.80
2023-08-17T15:37:31.770Z,2.00
2023-08-17T15:39:59.468Z,1.70
2023-08-17T15:42:27.367Z,2.00
2023-08-17T15:44:54.874Z,1.50
2023-08-17T15:47:22.308Z,1.60
2023-08-17T15:49:49.762Z,1.80
2023-08-17T15:52:17.303Z,1.70
2023-08-17T15:54:44.690Z,1.80
2023-08-17T15:57:12.116Z,1.80
2023-08-17T15:59:42.547Z,1.50
2023-08-17T16:02:10.036Z,2.10
2023-08-17T16:04:37.528Z,1.70
2023-08-17T16:07:05.058Z,2.10
2023-08-17T16:09:32.490Z,1.60
2023-08-17T16:11:59.945Z,1.80
2023-08-17T16:14:27.520Z,2.00
2023-08-17T16:16:57.118Z,1.60
2023-08-17T16:19:25.345Z,1.70
2023-08-17T16:21:52.878Z,2.10
2023-08-17T16:24:26.466Z,1.90
2023-08-17T16:29:22.321Z,1.80
2023-08-17T16:34:34.212Z,1.80
2023-08-17T16:37:01.824Z,1.80
2023-08-17T16:39:29.338Z,2.10
2023-08-17T16:41:57.874Z,1.60
2023-08-17T16:44:27.814Z,1.70
2023-08-17T16:46:55.913Z,2.00
2023-08-17T16:49:29.663Z,1.90
2023-08-17T16:54:26.796Z,1.60
2023-08-17T16:56:54.550Z,2.30
2023-08-17T16:59:22.377Z,1.90
2023-08-17T17:01:50.041Z,2.10
2023-08-17T17:04:18.849Z,2.20
2023-08-17T17:06:46.645Z,1.90
2023-08-17T17:09:14.106Z,2.20
2023-08-17T17:11:41.795Z,2.60
2023-08-17T17:14:09.282Z,1.80
2023-08-17T17:16:36.733Z,2.30
2023-08-17T17:19:04.336Z,2.30
2023-08-17T17:21:31.855Z,2.20
2023-08-17T17:23:59.234Z,2.10
2023-08-17T17:26:26.632Z,2.10
2023-08-17T17:28:54.068Z,2.40
2023-08-17T17:31:21.605Z,2.20
2023-08-17T17:33:49.103Z,2.40
2023-08-17T17:36:16.538Z,2.20
2023-08-17T17:38:43.941Z,2.20
2023-08-17T17:41:11.392Z,2.70
2023-08-17T17:43:38.866Z,3.20
2023-08-17T17:46:06.292Z,2.80
2023-08-17T17:48:34.188Z,2.50
2023-08-17T17:51:01.605Z,2.80
2023-08-17T17:53:30.160Z,2.40
2023-08-17T17:55:57.636Z,2.80
2023-08-17T17:58:25.141Z,2.60
2023-08-17T18:00:54.790Z,2.90
2023-08-17T18:03:22.495Z,2.30
2023-08-17T18:05:50.013Z,3.00
2023-08-17T18:08:17.615Z,2.70
2023-08-17T18:10:45.286Z,2.80
2023-08-17T18:13:12.701Z,2.70
2023-08-17T18:15:40.349Z,2.80
2023-08-17T18:18:08.534Z,3.10
2023-08-17T18:20:36.112Z,2.80
2023-08-17T18:23:03.724Z,2.70
2023-08-17T18:25:31.270Z,2.90
2023-08-17T18:27:58.849Z,2.90
2023-08-17T18:30:26.278Z,2.90
2023-08-17T18:32:53.749Z,3.00
2023-08-17T18:35:22.243Z,2.60
2023-08-17T18:37:50.005Z,2.50
2023-08-17T18:40:20.943Z,2.30
2023-08-17T18:42:49.862Z,2.50
2023-08-17T18:45:20.635Z,2.70
2023-08-17T18:47:48.136Z,2.30
2023-08-17T18:50:16.108Z,2.70
2023-08-17T18:52:43.637Z,3.10
2023-08-17T18:55:14.050Z,2.80
2023-08-17T18:57:42.027Z,2.70
2023-08-17T19:00:12.341Z,3.20
2023-08-17T19:02:40.910Z,3.20
2023-08-17T19:05:09.196Z,3.30
2023-08-17T19:07:36.766Z,2.80
2023-08-17T19:10:04.483Z,3.00
2023-08-17T19:12:31.983Z,2.80
2023-08-17T19:14:59.404Z,3.10
2023-08-17T19:17:27.767Z,3.10
2023-08-17T19:19:55.548Z,4.20
2023-08-17T19:22:23.059Z,3.20
2023-08-17T19:24:50.491Z,3.50
2023-08-17T19:27:17.891Z,3.50
2023-08-17T19:29:45.360Z,3.80
2023-08-17T19:32:12.810Z,3.20
2023-08-17T19:34:40.236Z,3.70
2023-08-17T19:37:07.744Z,3.70
2023-08-17T19:39:35.159Z,3.40
2023-08-17T19:42:03.831Z,4.20
2023-08-17T19:44:31.236Z,3.60
2023-08-17T19:46:58.683Z,3.40
2023-08-17T19:49:26.270Z,4.10
2023-08-17T19:51:53.729Z,4.00
2023-08-17T19:54:21.723Z,3.80
2023-08-17T19:56:49.303Z,3.90
2023-08-17T19:59:16.721Z,3.90
2023-08-17T20:01:45.636Z,4.10
2023-08-17T20:04:13.071Z,3.80
2023-08-17T20:06:40.863Z,3.80
2023-08-17T20:09:08.290Z,4.00
2023-08-17T20:11:35.791Z,3.90
2023-08-17T20:14:03.281Z,4.10
2023-08-17T20:16:30.873Z,3.80
2023-08-17T20:18:58.314Z,3.70
2023-08-17T20:21:25.814Z,4.00
2023-08-17T20:23:53.311Z,3.70
2023-08-17T20:26:21.171Z,4.00
2023-08-17T20:28:48.638Z,4.00
2023-08-17T20:31:16.210Z,3.40
2023-08-17T20:33:44.121Z,3.80
2023-08-17T21:02:13.924Z,3.60
2023-08-17T21:04:41.360Z,4.80
2023-08-17T21:07:08.727Z,4.10
2023-08-17T21:09:36.091Z,3.30
2023-08-17T21:12:03.919Z,3.30
2023-08-17T21:14:31.357Z,3.40
2023-08-17T21:16:59.347Z,4.30
2023-08-17T21:19:26.763Z,3.80
2023-08-17T21:21:54.180Z,4.80
2023-08-17T21:24:21.676Z,4.10
2023-08-17T21:26:49.110Z,3.90
2023-08-17T21:29:16.530Z,3.90
2023-08-17T21:31:46.500Z,3.90
2023-08-17T21:34:16.611Z,3.80
2023-08-17T21:36:43.989Z,3.40
2023-08-17T21:39:12.438Z,3.60
2023-08-17T21:41:39.874Z,4.00
2023-08-17T21:44:07.452Z,4.40
2023-08-17T21:46:34.860Z,3.80
2023-08-17T21:49:02.304Z,4.20
2023-08-17T21:51:29.729Z,4.10
2023-08-17T21:53:59.468Z,4.00
2023-08-17T21:56:26.841Z,4.10
2023-08-17T21:58:54.223Z,4.40
2023-08-17T22:01:21.654Z,3.80
2023-08-17T22:03:49.150Z,3.80
2023-08-17T22:06:16.669Z,3.70
2023-08-17T22:08:44.088Z,3.80
2023-08-17T22:11:11.519Z,4.50
2023-08-17T22:13:39.163Z,4.30
2023-08-17T22:16:06.675Z,4.60
2023-08-17T22:18:34.061Z,3.90
2023-08-17T22:21:05.286Z,4.70
2023-08-17T22:23:32.850Z,4.50
2023-08-17T22:26:00.308Z,4.70
2023-08-17T22:28:28.536Z,5.00
2023-08-17T22:31:09.244Z,4.50
2023-08-17T22:33:36.878Z,5.00
2023-08-17T22:36:04.486Z,5.50
2023-08-17T22:38:31.872Z,5.30
2023-08-17T22:40:59.301Z,5.40
2023-08-17T22:43:26.690Z,5.80
2023-08-17T22:45:54.161Z,5.80
2023-08-17T22:48:21.603Z,5.90
2023-08-17T22:50:49.084Z,6.10
2023-08-17T22:53:16.536Z,5.70
2023-08-17T22:55:43.954Z,6.70
2023-08-17T22:58:11.333Z,7.10
2023-08-17T23:00:38.731Z,5.90
2023-08-17T23:03:06.230Z,5.30
2023-08-17T23:05:34.591Z,5.10
2023-08-17T23:08:02.522Z,4.20
2023-08-17T23:10:29.988Z,5.20
2023-08-17T23:12:57.454Z,4.50
2023-08-17T23:15:24.966Z,4.40
2023-08-17T23:17:52.519Z,4.80
2023-08-17T23:20:20.162Z,4.80
2023-08-17T23:22:47.803Z,6.30
2023-08-17T23:25:15.305Z,5.20
2023-08-17T23:27:42.764Z,5.90
2023-08-17T23:30:11.482Z,5.30
2023-08-17T23:32:38.992Z,5.40
2023-08-17T23:35:07.352Z,5.10
2023-08-17T23:37:34.857Z,5.60
2023-08-17T23:40:02.306Z,5.70
2023-08-17T23:42:29.799Z,5.70
2023-08-17T23:44:57.538Z,6.10
2023-08-17T23:47:24.993Z,5.10
2023-08-17T23:49:52.444Z,5.00
2023-08-17T23:52:19.885Z,4.80
2023-08-17T23:54:47.670Z,4.80
2023-08-17T23:57:15.092Z,4.80
2023-08-17T23:59:42.475Z,5.00
